TimeEST,TemperatureF,Dew PointF,Humidity,Sea Level PressureIn,VisibilityMPH,Wind Direction,Wind SpeedMPH,Gust SpeedMPH,PrecipitationIn,Events,Conditions,WindDirDegrees,DateUTC
12:15 AM,50.0,45.5,85,30.20,10.0,SW,3.5,-,N/A,,Scattered Clouds,220,2013-01-29 05:15:00
12:35 AM,50.0,45.7,85,30.19,10.0,Calm,Calm,-,N/A,,Scattered Clouds,0,2013-01-29 05:35:00
12:55 AM,50.0,45.5,85,30.19,10.0,Calm,Calm,-,N/A,,Mostly Cloudy,0,2013-01-29 05:55:00
1:15 AM,50.0,46.2,87,30.19,10.0,Calm,Calm,-,N/A,,Scattered Clouds,0,2013-01-29 06:15:00
1:35 AM,47.5,43.9,87,30.19,10.0,Calm,Calm,-,N/A,,Clear,0,2013-01-29 06:35:00
1:55 AM,48.6,45.5,89,30.18,10.0,SSW,3.5,-,N/A,,Clear,210,2013-01-29 06:55:00
2:15 AM,47.5,44.4,89,30.19,10.0,Calm,Calm,-,N/A,,Clear,0,2013-01-29 07:15:00
2:35 AM,46.0,43.2,90,30.19,10.0,Calm,Calm,-,N/A,,Clear,0,2013-01-29 07:35:00
2:55 AM,46.6,43.5,89,30.18,10.0,Calm,Calm,-,N/A,,Clear,0,2013-01-29 07:55:00
3:15 AM,45.7,43.0,90,30.18,7.0,Calm,Calm,-,N/A,,Clear,0,2013-01-29 08:15:00
3:35 AM,46.4,43.7,90,30.18,7.0,Calm,Calm,-,N/A,,Scattered Clouds,0,2013-01-29 08:35:00
3:55 AM,47.5,45.0,91,30.17,7.0,Calm,Calm,-,N/A,,Mostly Cloudy,0,2013-01-29 08:55:00
4:15 AM,50.0,47.3,90,30.17,7.0,Calm,Calm,-,N/A,,Scattered Clouds,0,2013-01-29 09:15:00
4:35 AM,50.0,47.3,90,30.17,7.0,Calm,Calm,-,N/A,,Scattered Clouds,0,2013-01-29 09:35:00
4:55 AM,50.0,47.1,90,30.16,7.0,Calm,Calm,-,N/A,,Mostly Cloudy,0,2013-01-29 09:55:00
5:15 AM,50.0,47.1,90,30.17,7.0,Calm,Calm,-,N/A,,Scattered Clouds,0,2013-01-29 10:15:00
5:35 AM,50.0,47.1,90,30.17,7.0,Calm,Calm,-,N/A,,Clear,0,2013-01-29 10:35:00
5:55 AM,47.5,44.8,90,30.17,7.0,Calm,Calm,-,N/A,,Clear,0,2013-01-29 10:55:00
6:15 AM,47.5,44.8,90,30.17,7.0,Calm,Calm,-,N/A,,Clear,0,2013-01-29 11:15:00
6:35 AM,46.4,43.7,90,30.18,7.0,Calm,Calm,-,N/A,,Clear,0,2013-01-29 11:35:00
6:55 AM,45.1,42.8,91,30.19,5.0,Calm,Calm,-,N/A,,Clear,0,2013-01-29 11:55:00
7:15 AM,46.8,44.2,91,30.19,5.0,Calm,Calm,-,N/A,,Clear,0,2013-01-29 12:15:00
7:35 AM,46.4,43.7,90,30.19,4.0,Calm,Calm,-,N/A,,Clear,0,2013-01-29 12:35:00
7:55 AM,47.5,45.1,92,30.19,5.0,Calm,Calm,-,N/A,,Clear,0,2013-01-29 12:55:00
8:15 AM,50.0,47.3,90,30.19,5.0,Calm,Calm,-,N/A,,Clear,0,2013-01-29 13:15:00
8:35 AM,50.0,46.8,89,30.20,7.0,Calm,Calm,-,N/A,,Clear,0,2013-01-29 13:35:00
8:55 AM,52.7,48.7,86,30.20,7.0,Calm,Calm,-,N/A,,Scattered Clouds,0,2013-01-29 13:55:00
9:15 AM,52.7,48.2,85,30.19,10.0,Calm,Calm,-,N/A,,Scattered Clouds,0,2013-01-29 14:15:00
9:35 AM,55.0,49.3,81,30.19,10.0,Calm,Calm,-,N/A,,Clear,0,2013-01-29 14:35:00
9:55 AM,56.3,49.5,78,30.19,10.0,Calm,Calm,-,N/A,,Clear,0,2013-01-29 14:55:00
10:15 AM,58.3,50.2,74,30.19,10.0,Calm,Calm,-,N/A,,Clear,0,2013-01-29 15:15:00
10:35 AM,61.2,50.9,69,30.19,10.0,Calm,Calm,-,N/A,,Clear,0,2013-01-29 15:35:00
10:55 AM,65.3,53.1,65,30.18,10.0,Calm,Calm,-,N/A,,Scattered Clouds,0,2013-01-29 15:55:00
11:15 AM,65.3,52.2,62,30.18,10.0,SSW,3.5,-,N/A,,Scattered Clouds,210,2013-01-29 16:15:00
11:35 AM,65.3,52.5,63,30.17,10.0,Calm,Calm,-,N/A,,Scattered Clouds,0,2013-01-29 16:35:00
11:55 AM,65.3,52.0,62,30.16,10.0,Calm,Calm,-,N/A,,Clear,0,2013-01-29 16:55:00
12:15 PM,65.3,50.9,60,30.15,10.0,Calm,Calm,-,N/A,,Clear,0,2013-01-29 17:15:00
12:35 PM,67.6,52.0,57,30.14,10.0,Calm,Calm,-,N/A,,Clear,0,2013-01-29 17:35:00
12:55 PM,70.0,53.1,55,30.13,10.0,SW,3.5,-,N/A,,Clear,220,2013-01-29 17:55:00
1:15 PM,70.0,53.1,55,30.12,10.0,Calm,Calm,-,N/A,,Clear,0,2013-01-29 18:15:00
1:35 PM,70.0,52.7,54,30.11,10.0,Calm,Calm,-,N/A,,Clear,0,2013-01-29 18:35:00
1:55 PM,70.7,50.7,49,30.11,10.0,Calm,Calm,-,N/A,,Clear,0,2013-01-29 18:55:00
2:15 PM,70.0,50.5,50,30.10,10.0,Calm,Calm,-,N/A,,Clear,0,2013-01-29 19:15:00
2:35 PM,72.5,51.8,48,30.09,10.0,Calm,Calm,-,N/A,,Clear,0,2013-01-29 19:35:00
2:55 PM,72.5,51.8,48,30.10,10.0,Calm,Calm,-,N/A,,Clear,0,2013-01-29 19:55:00
3:15 PM,72.5,50.9,47,30.09,10.0,Calm,Calm,-,N/A,,Clear,0,2013-01-29 20:15:00
3:35 PM,72.5,51.3,47,30.10,10.0,SSW,3.5,-,N/A,,Clear,200,2013-01-29 20:35:00
3:55 PM,72.3,53.2,51,30.10,10.0,Calm,Calm,-,N/A,,Clear,0,2013-01-29 20:55:00
4:15 PM,70.0,51.6,52,30.10,10.0,South,5.8,-,N/A,,Clear,190,2013-01-29 21:15:00
4:35 PM,70.0,53.6,56,30.10,10.0,SSW,3.5,-,N/A,,Clear,200,2013-01-29 21:35:00
4:55 PM,70.0,55.0,59,30.11,10.0,Calm,Calm,-,N/A,,Clear,0,2013-01-29 21:55:00
5:15 PM,67.5,54.3,63,30.11,10.0,South,3.5,-,N/A,,Clear,180,2013-01-29 22:15:00
5:35 PM,65.3,53.2,65,30.11,10.0,South,3.5,-,N/A,,Clear,170,2013-01-29 22:35:00
5:55 PM,65.3,56.1,72,30.11,10.0,SSE,3.5,-,N/A,,Clear,160,2013-01-29 22:55:00
6:15 PM,61.3,54.3,78,30.11,10.0,SSE,3.5,-,N/A,,Clear,160,2013-01-29 23:15:00
6:35 PM,62.2,55.2,78,30.11,10.0,SSE,3.5,-,N/A,,Clear,160,2013-01-29 23:35:00
6:55 PM,58.6,52.9,81,30.11,10.0,SSE,4.6,-,N/A,,Clear,160,2013-01-29 23:55:00
7:15 PM,60.1,54.1,81,30.10,10.0,SSE,3.5,-,N/A,,Clear,150,2013-01-30 00:15:00
7:35 PM,58.1,52.7,82,30.11,10.0,South,3.5,-,N/A,,Clear,170,2013-01-30 00:35:00
7:55 PM,57.6,52.5,83,30.10,10.0,SSE,5.8,-,N/A,,Clear,160,2013-01-30 00:55:00
8:15 PM,56.3,51.6,84,30.10,10.0,SSE,5.8,-,N/A,,Clear,160,2013-01-30 01:15:00
8:35 PM,57.6,52.5,83,30.10,10.0,SSE,5.8,-,N/A,,Clear,160,2013-01-30 01:35:00
8:55 PM,57.6,52.3,83,30.10,10.0,SSE,4.6,-,N/A,,Clear,160,2013-01-30 01:55:00
9:15 PM,58.1,52.7,82,30.10,10.0,South,4.6,-,N/A,,Clear,170,2013-01-30 02:15:00
9:35 PM,57.6,52.7,84,30.11,10.0,South,4.6,-,N/A,,Clear,170,2013-01-30 02:35:00
9:55 PM,57.4,52.5,84,30.11,10.0,South,4.6,-,N/A,,Clear,180,2013-01-30 02:55:00
10:15 PM,56.3,51.8,85,30.10,10.0,South,5.8,-,N/A,,Clear,170,2013-01-30 03:15:00
10:35 PM,56.3,52.2,86,30.10,10.0,South,5.8,-,N/A,,Clear,180,2013-01-30 03:35:00
10:55 PM,58.5,52.9,82,30.11,10.0,South,4.6,-,N/A,,Clear,190,2013-01-30 03:55:00
11:15 PM,59.4,53.8,82,30.11,10.0,South,4.6,-,N/A,,Clear,190,2013-01-30 04:15:00
11:35 PM,60.1,54.5,82,30.11,10.0,SSW,4.6,-,N/A,,Clear,200,2013-01-30 04:35:00
11:55 PM,60.1,54.5,82,30.10,10.0,South,4.6,-,N/A,,Clear,190,2013-01-30 04:55:00